Time;durP1;ratioP1;P1;durP2;ratioP2;P2;SDS_P1;SDS_P2;PMS_P1;PMS_P2;Temp;Humidity;BMP_temperature;BMP_pressure;BME280_temperature;BME280_humidity;BME280_pressure;Samples;Min_cycle;Max_cycle;Signal;HPM_P1;HPM_P2
2023/11/14 00:01:58;;;;;;;0.20;0.20;;;;;;;12.37;100.00;96765.91;6214914;28;20200;-53
2023/11/14 00:05:00;;;;;;;0.83;0.40;;;;;;;12.10;100.00;96761.72;6209220;28;20208;-54
2023/11/14 00:08:03;;;;;;;0.77;0.40;;;;;;;11.78;100.00;96777.31;6220468;28;20306;-55
2023/11/14 00:11:06;;;;;;;0.20;0.20;;;;;;;11.53;100.00;96783.50;6194128;28;20272;-54
2023/11/14 00:14:08;;;;;;;0.73;0.60;;;;;;;11.51;100.00;96778.44;6215682;28;20679;-52
2023/11/14 00:17:11;;;;;;;0.73;0.57;;;;;;;11.32;100.00;96778.19;6208659;28;20196;-52
2023/11/14 00:20:15;;;;;;;1.40;0.50;;;;;;;11.20;100.00;96782.22;6205247;28;20197;-54
2023/11/14 00:23:17;;;;;;;0.50;0.40;;;;;;;11.07;100.00;96765.66;6214069;28;20272;-54
2023/11/14 00:26:20;;;;;;;0.30;0.30;;;;;;;11.11;100.00;96765.94;6213691;28;20197;-54
2023/11/14 00:29:27;;;;;;;1.03;0.20;;;;;;;11.05;100.00;96777.69;6202263;28;20225;-54
2023/11/14 00:32:29;;;;;;;0.40;0.40;;;;;;;10.98;100.00;96779.78;6177698;28;20308;-53
2023/11/14 00:35:32;;;;;;;0.87;0.40;;;;;;;10.89;100.00;96765.44;6165736;28;20217;-54
2023/11/14 00:38:34;;;;;;;0.30;0.30;;;;;;;10.82;100.00;96779.00;6188145;28;20194;-55
2023/11/14 00:41:36;;;;;;;1.63;0.60;;;;;;;10.64;100.00;96751.03;6192164;28;20192;-54
2023/11/14 00:44:39;;;;;;;1.10;0.40;;;;;;;10.99;100.00;96776.88;6177204;28;20212;-53
2023/11/14 00:47:42;;;;;;;1.40;0.40;;;;;;;10.91;100.00;96769.41;6191292;28;20222;-54
2023/11/14 00:50:44;;;;;;;3.33;0.57;;;;;;;10.77;100.00;96798.44;6193096;28;20209;-54
2023/11/14 00:53:49;;;;;;;1.40;0.40;;;;;;;10.71;100.00;96799.50;6174658;28;20691;-53
2023/11/14 00:56:51;;;;;;;3.80;0.43;;;;;;;10.74;100.00;96801.66;6186818;28;20213;-54
2023/11/14 00:59:53;;;;;;;0.47;0.30;;;;;;;10.46;100.00;96791.47;6183765;28;20205;-53
2023/11/14 01:03:00;;;;;;;1.03;0.40;;;;;;;10.48;100.00;96827.41;6170513;28;20547;-55
2023/11/14 01:06:04;;;;;;;1.17;0.30;;;;;;;10.41;100.00;96840.16;6180160;28;20207;-51
2023/11/14 01:09:08;;;;;;;1.30;0.30;;;;;;;10.79;100.00;96852.28;6178366;28;20243;-55
2023/11/14 01:12:12;;;;;;;0.30;0.30;;;;;;;11.10;100.00;96818.47;6179297;28;20239;-55
2023/11/14 01:15:14;;;;;;;0.37;0.33;;;;;;;11.28;100.00;96826.97;6186370;28;20216;-55
2023/11/14 01:18:17;;;;;;;0.20;0.20;;;;;;;11.65;100.00;96820.56;6197384;28;20326;-54
2023/11/14 01:21:19;;;;;;;0.57;0.40;;;;;;;12.58;100.00;96828.81;6200432;28;20196;-55
2023/11/14 01:24:21;;;;;;;0.30;0.30;;;;;;;12.39;100.00;96828.63;6194502;28;20205;-55
2023/11/14 01:27:24;;;;;;;0.67;0.27;;;;;;;13.75;100.00;96821.03;6196042;28;20217;-54
2023/11/14 01:30:26;;;;;;;0.27;0.27;;;;;;;14.02;100.00;96815.91;6194823;28;20224;-53
2023/11/14 01:33:29;;;;;;;0.50;0.20;;;;;;;14.07;100.00;96828.44;6217725;28;20200;-56
2023/11/14 01:36:31;;;;;;;0.33;0.30;;;;;;;13.74;100.00;96824.75;6199986;28;20546;-53
2023/11/14 01:39:33;;;;;;;0.30;0.30;;;;;;;13.36;100.00;96805.88;6218283;28;20232;-55
2023/11/14 01:42:36;;;;;;;1.07;0.23;;;;;;;14.17;100.00;96818.41;6217641;28;20270;-56
2023/11/14 01:45:38;;;;;;;0.50;0.20;;;;;;;13.88;100.00;96820.34;6216611;28;20197;-56
2023/11/14 01:48:40;;;;;;;0.73;0.20;;;;;;;13.56;100.00;96824.41;6215501;28;20856;-55
2023/11/14 01:51:43;;;;;;;1.10;0.40;;;;;;;13.57;100.00;96815.28;6218076;28;20197;-55
2023/11/14 01:54:46;;;;;;;0.87;0.27;;;;;;;13.35;100.00;96817.66;6217208;28;20213;-56
2023/11/14 01:57:48;;;;;;;2.13;0.30;;;;;;;13.25;100.00;96821.19;6218500;28;20185;-55
2023/11/14 02:00:50;;;;;;;0.40;0.40;;;;;;;12.90;100.00;96820.31;6204479;28;20205;-55
2023/11/14 02:03:52;;;;;;;0.30;0.30;;;;;;;13.29;100.00;96832.13;6204952;28;20211;-56
2023/11/14 02:06:56;;;;;;;0.33;0.33;;;;;;;13.42;100.00;96824.25;6221824;28;20759;-56
2023/11/14 02:09:58;;;;;;;0.27;0.27;;;;;;;13.67;100.00;96843.84;6203982;28;20581;-56
2023/11/14 02:13:00;;;;;;;0.30;0.30;;;;;;;13.57;100.00;96841.25;6220521;28;20199;-55
2023/11/14 02:16:03;;;;;;;2.63;0.50;;;;;;;13.46;100.00;96855.81;6222334;28;20212;-56
2023/11/14 02:19:06;;;;;;;0.70;0.50;;;;;;;13.46;100.00;96858.50;6203833;28;20206;-55
2023/11/14 02:22:09;;;;;;;0.30;0.30;;;;;;;13.19;100.00;96859.72;6221991;28;20661;-55
2023/11/14 02:25:13;;;;;;;1.00;0.30;;;;;;;13.28;100.00;96849.25;6220965;28;20277;-54
2023/11/14 02:28:15;;;;;;;0.30;0.30;;;;;;;13.55;100.00;96857.59;6220529;28;20218;-55
2023/11/14 02:31:17;;;;;;;0.27;0.20;;;;;;;13.71;100.00;96868.16;6219502;28;20227;-54
2023/11/14 02:34:20;;;;;;;2.10;0.33;;;;;;;13.66;100.00;96858.31;6203995;28;20700;-56
2023/11/14 02:37:22;;;;;;;1.40;0.37;;;;;;;13.72;100.00;96873.25;6196993;28;20204;-55
2023/11/14 02:40:25;;;;;;;0.50;0.23;;;;;;;13.96;100.00;96867.94;6221587;28;20607;-56
2023/11/14 02:43:27;;;;;;;2.40;0.43;;;;;;;13.84;100.00;96886.22;6202831;28;20777;-54
2023/11/14 02:46:29;;;;;;;0.80;0.50;;;;;;;13.65;100.00;96886.97;6221498;28;20648;-53
2023/11/14 02:50:08;;;;;;;0.20;0.20;;;;;;;13.54;100.00;96881.94;6217821;28;20333;-56
2023/11/14 02:53:10;;;;;;;0.30;0.30;;;;;;;13.38;100.00;96887.41;6202021;28;20429;-55
2023/11/14 02:56:12;;;;;;;0.53;0.30;;;;;;;13.02;100.00;96868.13;6202750;28;20206;-54
2023/11/14 02:59:15;;;;;;;0.37;0.33;;;;;;;12.75;100.00;96876.53;6192053;28;20211;-56
2023/11/14 03:02:18;;;;;;;0.80;0.40;;;;;;;12.97;100.00;96907.47;6203642;28;20204;-56
2023/11/14 03:05:21;;;;;;;0.20;0.20;;;;;;;12.86;100.00;96920.09;6205127;28;20213;-55
2023/11/14 03:08:23;;;;;;;0.57;0.33;;;;;;;12.84;100.00;96908.84;6203354;28;20206;-55
2023/11/14 03:11:25;;;;;;;0.50;0.30;;;;;;;12.74;100.00;96924.94;6209406;28;20747;-55
2023/11/14 03:14:28;;;;;;;0.73;0.37;;;;;;;12.65;100.00;96927.38;6200783;28;20204;-56
2023/11/14 03:17:31;;;;;;;0.30;0.30;;;;;;;12.55;100.00;96943.44;6189570;28;20209;-55
2023/11/14 03:20:33;;;;;;;0.80;0.47;;;;;;;12.53;100.00;96925.03;6203173;28;20235;-54
2023/11/14 03:23:36;;;;;;;1.13;0.47;;;;;;;12.44;100.00;96939.22;6204110;28;20201;-53
2023/11/14 03:26:39;;;;;;;1.13;0.50;;;;;;;12.33;100.00;96939.22;6221196;28;20280;-55
2023/11/14 03:29:41;;;;;;;0.57;0.47;;;;;;;12.23;100.00;96946.47;6220402;28;20216;-55
2023/11/14 03:32:43;;;;;;;0.40;0.40;;;;;;;12.20;100.00;96966.50;6219305;28;20721;-52
2023/11/14 03:35:46;;;;;;;0.90;0.40;;;;;;;12.12;100.00;96985.75;6217811;28;20208;-55
2023/11/14 03:38:48;;;;;;;2.63;0.47;;;;;;;12.07;100.00;96970.53;6220530;28;20641;-55
2023/11/14 03:41:50;;;;;;;0.50;0.40;;;;;;;12.24;100.00;97001.47;6201219;28;20669;-53
2023/11/14 03:44:52;;;;;;;0.40;0.40;;;;;;;12.38;100.00;97011.34;6219527;28;20205;-53
2023/11/14 03:47:54;;;;;;;0.83;0.43;;;;;;;12.47;100.00;96992.09;6187027;28;20916;-56
2023/11/14 03:50:56;;;;;;;1.90;0.50;;;;;;;12.61;100.00;96991.28;6219496;28;20222;-56
2023/11/14 03:53:59;;;;;;;0.30;0.30;;;;;;;12.55;100.00;97023.59;6201650;28;20283;-55
2023/11/14 03:57:02;;;;;;;0.50;0.50;;;;;;;12.60;100.00;97029.72;6200825;28;20212;-55
2023/11/14 04:00:05;;;;;;;1.10;0.40;;;;;;;12.72;100.00;97040.13;6201561;28;20207;-55
2023/11/14 04:03:13;;;;;;;0.63;0.30;;;;;;;12.73;100.00;97033.72;6219484;28;20575;-55
2023/11/14 04:06:16;;;;;;;0.37;0.37;;;;;;;12.55;100.00;97039.63;6218781;28;20588;-56
2023/11/14 04:09:18;;;;;;;1.40;0.40;;;;;;;12.40;100.00;97053.81;6201533;28;20275;-55
2023/11/14 04:12:20;;;;;;;0.97;0.40;;;;;;;12.48;100.00;97057.81;6192964;28;20213;-55
2023/11/14 04:15:22;;;;;;;0.33;0.30;;;;;;;12.32;100.00;97054.34;6203928;28;20185;-55
2023/11/14 04:18:24;;;;;;;0.73;0.20;;;;;;;12.23;100.00;97031.94;6194374;28;20204;-56
2023/11/14 04:21:26;;;;;;;1.13;0.60;;;;;;;12.07;100.00;97039.16;6214079;28;20204;-55
2023/11/14 04:24:28;;;;;;;0.90;0.40;;;;;;;11.97;100.00;97028.44;6219373;28;20197;-53
2023/11/14 04:27:31;;;;;;;0.43;0.40;;;;;;;11.95;100.00;97012.69;6200727;28;20287;-55
2023/11/14 04:30:33;;;;;;;0.90;0.37;;;;;;;11.84;100.00;97017.22;6218835;28;21145;-55
2023/11/14 04:33:35;;;;;;;1.03;0.50;;;;;;;11.76;100.00;97033.72;6218261;28;20200;-55
2023/11/14 04:36:37;;;;;;;0.47;0.40;;;;;;;11.64;100.00;97019.84;6201263;28;20279;-55
2023/11/14 04:39:42;;;;;;;0.60;0.40;;;;;;;11.57;100.00;97024.63;6219475;28;20193;-53
2023/11/14 04:42:46;;;;;;;0.87;0.50;;;;;;;11.89;100.00;97011.09;6218476;28;20196;-55
2023/11/14 04:45:48;;;;;;;2.87;0.63;;;;;;;11.95;100.00;97033.25;6201585;28;20931;-53
2023/11/14 04:48:50;;;;;;;1.60;0.47;;;;;;;11.87;100.00;97038.06;6201672;28;20216;-53
2023/11/14 04:51:52;;;;;;;0.60;0.40;;;;;;;12.03;100.00;97044.22;6218798;28;20197;-55
2023/11/14 04:54:55;;;;;;;2.73;0.97;;;;;;;12.05;100.00;97058.06;6218647;28;20685;-55
2023/11/14 04:57:57;;;;;;;2.83;0.60;;;;;;;11.92;100.00;97065.81;6217849;28;20211;-53
2023/11/14 05:01:00;;;;;;;0.97;0.40;;;;;;;11.78;100.00;97100.19;6218078;28;20192;-54
2023/11/14 05:04:02;;;;;;;1.27;0.40;;;;;;;11.70;100.00;97087.34;6218171;28;20203;-55
2023/11/14 05:07:04;;;;;;;0.80;0.50;;;;;;;11.74;100.00;97102.59;6218072;28;20226;-52
2023/11/14 05:10:07;;;;;;;0.50;0.40;;;;;;;11.81;100.00;97088.97;6217049;28;20596;-55
2023/11/14 05:13:10;;;;;;;1.33;0.40;;;;;;;11.70;100.00;97095.34;6213444;28;20203;-53
2023/11/14 05:16:12;;;;;;;2.13;0.60;;;;;;;11.94;100.00;97090.38;6218045;28;20189;-54
2023/11/14 05:19:27;;;;;;;1.13;0.63;;;;;;;11.92;100.00;97069.28;6217798;28;20181;-53
2023/11/14 05:22:29;;;;;;;3.33;0.70;;;;;;;11.72;100.00;97037.19;6214733;28;20192;-55
2023/11/14 05:25:32;;;;;;;2.07;0.60;;;;;;;11.43;100.00;97051.03;6217698;28;20193;-53
2023/11/14 05:28:36;;;;;;;2.13;0.50;;;;;;;11.16;100.00;97034.38;6213283;28;20232;-54
2023/11/14 05:31:38;;;;;;;1.53;0.50;;;;;;;11.18;100.00;97042.91;6211008;28;20244;-55
2023/11/14 05:34:41;;;;;;;0.97;0.50;;;;;;;10.95;100.00;97058.28;6223083;28;20188;-53
2023/11/14 05:37:44;;;;;;;1.83;0.60;;;;;;;11.08;100.00;97067.66;6222342;28;20295;-52
2023/11/14 05:40:46;;;;;;;1.27;0.37;;;;;;;11.21;100.00;97051.19;6222225;28;20203;-51
2023/11/14 05:43:48;;;;;;;0.80;0.33;;;;;;;11.27;99.20;97062.69;6222627;28;20197;-53
2023/11/14 05:46:50;;;;;;;0.73;0.40;;;;;;;11.00;100.00;97071.63;6221263;28;20275;-52
2023/11/14 05:49:53;;;;;;;0.70;0.40;;;;;;;10.85;100.00;97060.91;6222981;28;20311;-54
2023/11/14 05:52:55;;;;;;;1.77;0.63;;;;;;;10.53;100.00;97047.66;6221941;28;20210;-53
2023/11/14 05:55:57;;;;;;;2.27;0.60;;;;;;;10.31;100.00;97034.47;6219593;28;20718;-55
2023/11/14 05:58:59;;;;;;;2.40;0.80;;;;;;;10.22;100.00;97051.94;6222244;28;20227;-55
2023/11/14 06:02:01;;;;;;;0.67;0.50;;;;;;;10.04;100.00;97053.91;6222822;28;20212;-55
2023/11/14 06:05:04;;;;;;;1.33;0.67;;;;;;;9.93;100.00;97064.72;6221682;28;20198;-55
2023/11/14 06:08:06;;;;;;;0.97;0.40;;;;;;;9.65;100.00;97052.47;6219544;28;21093;-56
2023/11/14 06:11:11;;;;;;;0.50;0.40;;;;;;;9.76;100.00;97076.28;6220768;28;20204;-56
2023/11/14 06:14:17;;;;;;;1.63;0.53;;;;;;;9.49;100.00;97051.53;6221193;28;20270;-53
2023/11/14 06:17:19;;;;;;;2.33;0.40;;;;;;;9.63;100.00;97105.94;6203176;28;20204;-52
2023/11/14 06:20:22;;;;;;;1.70;0.50;;;;;;;9.73;100.00;97095.41;6222333;28;20194;-53
2023/11/14 06:23:25;;;;;;;0.73;0.50;;;;;;;10.19;91.27;97093.16;6222042;28;20211;-54
2023/11/14 06:26:27;;;;;;;0.70;0.30;;;;;;;10.08;99.29;97097.59;6222169;28;20212;-55
2023/11/14 06:29:30;;;;;;;1.77;0.50;;;;;;;10.32;90.92;97129.25;6204667;28;20216;-55
2023/11/14 06:32:35;;;;;;;0.50;0.40;;;;;;;10.35;91.05;97118.09;6221338;28;20715;-56
2023/11/14 06:35:38;;;;;;;2.50;0.60;;;;;;;10.56;89.34;97127.84;6217756;28;20221;-56
2023/11/14 06:38:41;;;;;;;1.93;0.47;;;;;;;10.51;84.57;97121.69;6221838;28;20581;-55
2023/11/14 06:41:49;;;;;;;2.53;0.67;;;;;;;10.49;91.65;97161.88;6220305;28;20362;-55
2023/11/14 06:44:51;;;;;;;1.30;0.70;;;;;;;10.52;83.77;97157.91;6220697;28;20280;-52
2023/11/14 06:47:53;;;;;;;2.17;0.53;;;;;;;10.88;79.88;97142.97;6220275;28;20208;-54
2023/11/14 06:50:56;;;;;;;1.80;0.50;;;;;;;10.98;76.72;97183.00;6219845;28;20205;-55
2023/11/14 06:53:58;;;;;;;2.23;0.70;;;;;;;10.84;83.73;97197.88;6218946;28;20575;-55
2023/11/14 06:57:00;;;;;;;1.50;0.90;;;;;;;10.64;85.99;97209.16;6216972;28;20199;-55
2023/11/14 07:00:05;;;;;;;2.27;0.60;;;;;;;10.39;90.82;97217.69;6214608;28;20258;-54
2023/11/14 07:03:08;;;;;;;2.97;0.60;;;;;;;10.47;86.44;97229.75;6217216;28;20617;-54
2023/11/14 07:06:11;;;;;;;1.23;0.50;;;;;;;10.61;86.85;97254.94;6201238;28;20195;-56
2023/11/14 07:09:18;;;;;;;4.00;0.80;;;;;;;10.61;81.77;97262.13;6212201;28;20784;-55
2023/11/14 07:12:21;;;;;;;2.73;0.97;;;;;;;10.89;80.38;97229.06;6206632;28;20196;-55
2023/11/14 07:15:23;;;;;;;3.90;0.80;;;;;;;11.04;78.33;97229.19;6171631;28;20200;-54
2023/11/14 07:18:26;;;;;;;1.20;0.60;;;;;;;11.01;76.50;97245.69;6212911;28;20813;-55
2023/11/14 07:21:32;;;;;;;3.80;0.93;;;;;;;10.96;77.68;97240.31;6212280;28;20794;-55
2023/11/14 07:24:35;;;;;;;1.90;0.70;;;;;;;10.88;73.10;97184.81;6204125;28;20194;-53
2023/11/14 07:27:41;;;;;;;1.93;0.70;;;;;;;11.03;82.36;97241.72;6187604;28;20188;-55
2023/11/14 07:30:43;;;;;;;2.90;1.07;;;;;;;10.76;80.05;97259.59;6187927;28;20374;-55
2023/11/14 07:33:45;;;;;;;2.33;0.80;;;;;;;10.75;81.00;97266.00;6205365;28;20204;-56
2023/11/14 07:36:48;;;;;;;1.87;0.70;;;;;;;10.61;82.71;97256.78;6209974;28;20206;-55
2023/11/14 07:39:52;;;;;;;2.20;0.70;;;;;;;10.63;80.11;97274.13;6210033;28;20205;-53
2023/11/14 07:43:02;;;;;;;2.67;0.70;;;;;;;10.55;83.39;97271.94;6215162;28;20196;-54
2023/11/14 07:46:05;;;;;;;1.80;0.70;;;;;;;10.63;84.24;97260.81;6218281;28;20280;-53
2023/11/14 07:49:07;;;;;;;2.80;0.80;;;;;;;10.93;nan;97267.47;6216267;28;20211;-55
2023/11/14 07:52:10;;;;;;;4.80;0.87;;;;;;;11.01;78.32;97259.00;6207716;28;20193;-55
2023/11/14 07:55:12;;;;;;;2.40;0.73;;;;;;;10.86;81.04;97278.34;6214036;28;20222;-52
2023/11/14 07:58:14;;;;;;;2.40;0.60;;;;;;;11.18;75.71;97253.53;6218300;28;20203;-53
2023/11/14 08:01:17;;;;;;;3.83;0.70;;;;;;;11.07;77.61;97277.44;6218128;28;20671;-54
2023/11/14 08:04:19;;;;;;;2.57;0.50;;;;;;;11.03;76.14;97263.03;6218040;28;20339;-54
2023/11/14 08:07:21;;;;;;;2.43;0.80;;;;;;;10.67;81.35;97250.44;6198587;28;20198;-54
2023/11/14 08:10:24;;;;;;;3.57;1.30;;;;;;;10.62;83.75;97285.03;6195907;28;20205;-52
2023/11/14 08:13:26;;;;;;;2.23;0.70;;;;;;;10.49;88.01;97289.72;6217017;28;20672;-54
2023/11/14 08:16:28;;;;;;;1.03;0.60;;;;;;;10.50;86.30;97299.31;6213804;28;20698;-54
2023/11/14 08:19:30;;;;;;;1.50;0.80;;;;;;;10.30;85.32;97278.59;6203649;28;20195;-51
2023/11/14 08:22:35;;;;;;;0.90;0.60;;;;;;;10.43;84.48;97266.72;6205207;28;20275;-54
2023/11/14 08:25:37;;;;;;;5.00;0.90;;;;;;;10.79;81.79;97267.91;6214603;28;20444;-53
2023/11/14 08:28:39;;;;;;;2.30;0.63;;;;;;;10.68;82.27;97247.53;6210321;28;20207;-53
2023/11/14 08:31:42;;;;;;;1.07;0.50;;;;;;;11.06;76.19;97238.53;6202533;28;20228;-55
2023/11/14 08:34:44;;;;;;;2.50;0.87;;;;;;;11.33;74.01;97235.00;6209816;28;20402;-53
2023/11/14 08:37:48;;;;;;;3.40;0.70;;;;;;;11.36;73.68;97248.59;6195750;28;20228;-53
2023/11/14 08:40:50;;;;;;;2.03;0.60;;;;;;;11.22;74.92;97235.97;6198822;28;20219;-54
2023/11/14 08:43:52;;;;;;;2.00;0.67;;;;;;;11.37;73.15;97263.53;6211721;28;20199;-54
2023/11/14 08:46:54;;;;;;;2.23;1.00;;;;;;;11.36;72.54;97259.25;6217079;28;20662;-55
2023/11/14 08:49:56;;;;;;;4.60;0.73;;;;;;;11.28;74.21;97265.09;6214999;28;20210;-51
2023/11/14 08:52:59;;;;;;;4.17;0.73;;;;;;;11.26;74.71;97251.19;6216746;28;20214;-54
2023/11/14 08:56:01;;;;;;;5.17;0.73;;;;;;;11.11;76.50;97253.75;6217190;28;20195;-54
2023/11/14 08:59:03;;;;;;;2.80;0.73;;;;;;;11.01;79.67;97272.34;6217196;28;20275;-54
2023/11/14 09:02:05;;;;;;;2.67;0.50;;;;;;;10.97;75.63;97292.53;6215334;28;20192;-50
2023/11/14 09:05:09;;;;;;;1.03;0.50;;;;;;;11.32;72.92;97300.81;6215995;28;20204;-54
2023/11/14 09:08:11;;;;;;;3.80;0.73;;;;;;;11.31;74.04;97282.41;6216539;28;20677;-54
2023/11/14 09:11:14;;;;;;;1.97;0.70;;;;;;;11.09;78.82;97279.88;6214931;28;20309;-52
2023/11/14 09:14:16;;;;;;;1.53;0.47;;;;;;;11.03;78.21;97286.19;6215902;28;20598;-54
2023/11/14 09:17:18;;;;;;;1.13;0.60;;;;;;;11.15;78.82;97283.38;6216916;28;20196;-51
2023/11/14 09:20:20;;;;;;;1.20;0.63;;;;;;;11.11;76.83;97286.53;6215423;28;20207;-52
2023/11/14 09:23:22;;;;;;;0.83;0.70;;;;;;;11.30;76.04;97299.50;6206660;28;20208;-52
2023/11/14 09:26:24;;;;;;;1.57;0.50;;;;;;;11.31;75.94;97296.56;6208609;28;20216;-52
2023/11/14 09:29:26;;;;;;;1.40;0.60;;;;;;;11.22;78.26;97311.41;6203498;28;20207;-50
2023/11/14 09:32:28;;;;;;;2.30;0.60;;;;;;;11.37;73.74;97311.53;6216914;28;20232;-53
2023/11/14 09:35:31;;;;;;;1.60;0.70;;;;;;;11.55;71.43;97294.31;6210927;28;20211;-54
2023/11/14 09:38:33;;;;;;;2.30;0.80;;;;;;;11.31;79.18;97301.09;6205891;28;20197;-52
2023/11/14 09:41:35;;;;;;;3.53;0.60;;;;;;;11.23;76.16;97283.72;6212039;28;20199;-49
2023/11/14 09:44:37;;;;;;;2.17;0.80;;;;;;;11.34;75.78;97272.06;6214222;28;20200;-52
2023/11/14 09:47:40;;;;;;;2.13;0.83;;;;;;;11.34;74.04;97288.06;6210841;28;20345;-51
2023/11/14 09:50:43;;;;;;;1.90;0.67;;;;;;;11.18;76.26;97248.19;6213969;28;20212;-53
2023/11/14 09:53:47;;;;;;;3.57;0.80;;;;;;;11.29;76.81;97279.22;6216463;28;20216;-51
2023/11/14 09:56:50;;;;;;;1.83;0.60;;;;;;;11.34;75.63;97276.59;6216167;28;20573;-51
2023/11/14 09:59:53;;;;;;;2.40;0.70;;;;;;;11.44;74.57;97286.53;6216412;28;20212;-54
2023/11/14 10:03:03;;;;;;;3.60;0.90;;;;;;;11.59;72.10;97268.75;6215968;28;20198;-51
2023/11/14 10:06:05;;;;;;;2.77;0.80;;;;;;;11.78;72.35;97287.00;6215714;28;20194;-53
2023/11/14 10:09:11;;;;;;;1.83;0.80;;;;;;;11.98;70.53;97268.44;6213598;28;20661;-53
2023/11/14 10:12:36;;;;;;;2.53;0.90;;;;;;;12.19;69.12;97277.31;6214058;28;20204;-53
2023/11/14 10:15:38;;;;;;;3.80;1.20;;;;;;;12.11;71.93;97259.13;6213275;28;20290;-52
2023/11/14 10:18:40;;;;;;;3.57;0.90;;;;;;;12.27;70.34;97271.50;6197380;28;20878;-49
2023/11/14 10:21:44;;;;;;;4.27;1.37;;;;;;;12.21;71.30;97267.16;6216260;28;20326;-52
2023/11/14 10:24:52;;;;;;;4.60;1.27;;;;;;;12.17;74.06;97257.28;6220680;28;20204;-49
2023/11/14 10:28:04;;;;;;;2.23;0.87;;;;;;;12.29;73.08;97260.53;6202093;28;20193;-53
2023/11/14 10:31:06;;;;;;;3.43;0.73;;;;;;;12.51;69.11;97242.44;6219116;28;20545;-53
2023/11/14 10:34:29;;;;;;;2.90;0.97;;;;;;;12.69;70.01;97254.47;6219717;28;20331;-52
2023/11/14 10:37:33;;;;;;;3.50;0.80;;;;;;;12.79;70.82;97242.97;6218973;28;20244;-53
2023/11/14 10:40:44;;;;;;;3.43;0.90;;;;;;;12.72;68.46;97221.06;6220237;28;20243;-50
2023/11/14 10:43:46;;;;;;;2.20;0.80;;;;;;;12.88;66.88;97230.69;6219432;28;20192;-53
2023/11/14 10:46:53;;;;;;;3.87;1.00;;;;;;;12.88;66.15;97217.31;6218892;28;20204;-49
2023/11/14 10:49:56;;;;;;;4.10;1.03;;;;;;;12.88;65.63;97220.00;6219789;28;20349;-54
2023/11/14 10:52:59;;;;;;;3.97;1.20;;;;;;;13.14;64.37;97252.88;6219823;28;20963;-52
2023/11/14 10:56:05;;;;;;;2.87;0.90;;;;;;;12.98;65.34;97206.63;6216753;28;20573;-51
2023/11/14 10:59:15;;;;;;;2.73;1.00;;;;;;;13.06;64.70;97221.34;6219695;28;20197;-49
2023/11/14 11:02:18;;;;;;;3.77;1.00;;;;;;;13.08;67.44;97228.00;6219555;28;20200;-51
2023/11/14 11:05:21;;;;;;;5.07;1.50;;;;;;;13.14;68.05;97245.66;6218119;28;20196;-54
2023/11/14 11:08:32;;;;;;;3.03;0.87;;;;;;;13.15;66.70;97244.59;6218305;28;20683;-53
2023/11/14 11:11:55;;;;;;;5.87;1.00;;;;;;;13.15;68.25;97263.31;6216542;28;20680;-54
2023/11/14 11:14:58;;;;;;;3.87;1.30;;;;;;;13.17;73.14;97253.16;6214708;28;20661;-55
2023/11/14 11:18:01;;;;;;;3.37;0.87;;;;;;;13.32;72.23;97257.72;6219604;28;20203;-50
2023/11/14 11:21:10;;;;;;;2.53;0.77;;;;;;;13.36;70.95;97250.75;6218309;28;20196;-56
2023/11/14 11:24:13;;;;;;;1.47;0.83;;;;;;;13.34;72.75;97242.19;6216792;28;20600;-53
2023/11/14 11:27:22;;;;;;;3.80;1.00;;;;;;;13.32;70.98;97238.97;6218660;28;20220;-55
2023/11/14 11:30:26;;;;;;;4.03;1.03;;;;;;;13.31;71.38;97234.72;6218563;28;20228;-53
2023/11/14 11:33:36;;;;;;;3.27;0.90;;;;;;;13.27;71.53;97247.00;6220015;28;20331;-52
2023/11/14 11:36:38;;;;;;;3.77;0.77;;;;;;;13.25;72.06;97229.63;6219316;28;20197;-53
2023/11/14 11:40:06;;;;;;;2.73;0.80;;;;;;;13.19;70.36;97236.81;6218927;28;20563;-55
2023/11/14 11:43:11;;;;;;;2.27;0.80;;;;;;;13.18;72.42;97224.53;6218492;28;20193;-53
2023/11/14 11:46:32;;;;;;;3.33;1.00;;;;;;;13.04;71.71;97239.50;6217469;28;20274;-54
2023/11/14 11:49:35;;;;;;;1.77;0.77;;;;;;;12.85;74.03;97249.94;6219428;28;20208;-55
2023/11/14 11:52:37;;;;;;;1.33;0.90;;;;;;;12.82;72.70;97253.16;6219135;28;20280;-54
2023/11/14 11:55:39;;;;;;;1.93;0.70;;;;;;;12.76;75.25;97268.38;6218425;28;20205;-55
2023/11/14 11:58:46;;;;;;;3.50;0.83;;;;;;;12.64;74.16;97254.47;6217236;28;20188;-55
2023/11/14 12:01:49;;;;;;;3.83;0.70;;;;;;;12.53;76.71;97256.31;6218688;28;20580;-56
2023/11/14 12:04:59;;;;;;;1.40;0.70;;;;;;;12.51;74.04;97244.28;6218223;28;20220;-54
2023/11/14 12:08:04;;;;;;;2.47;0.50;;;;;;;12.38;79.80;97241.06;6218857;28;20213;-55
2023/11/14 12:11:14;;;;;;;1.80;0.60;;;;;;;13.03;69.80;97257.44;6217513;28;20219;-53
2023/11/14 12:14:18;;;;;;;1.50;0.60;;;;;;;12.83;74.47;97250.19;6216455;28;20196;-55
2023/11/14 12:17:22;;;;;;;0.70;0.57;;;;;;;12.78;75.91;97236.84;6218470;28;20193;-52
2023/11/14 12:20:25;;;;;;;1.90;0.60;;;;;;;13.04;69.45;97245.66;6217137;28;20189;-55
2023/11/14 12:23:27;;;;;;;2.07;0.57;;;;;;;13.11;68.43;97224.81;6218123;28;20327;-54
2023/11/14 12:26:29;;;;;;;1.20;0.53;;;;;;;13.21;67.60;97247.28;6217872;28;20208;-56
2023/11/14 12:29:31;;;;;;;1.67;0.50;;;;;;;13.14;67.86;97237.63;6218399;28;20226;-54
2023/11/14 12:32:35;;;;;;;1.13;0.50;;;;;;;13.08;74.03;97211.97;6217704;28;20231;-57
2023/11/14 12:35:49;;;;;;;1.47;0.47;;;;;;;12.91;76.35;97190.88;6218279;28;20208;-58
2023/11/14 12:38:52;;;;;;;2.07;0.50;;;;;;;12.74;78.12;97163.59;6217874;28;20204;-54
2023/11/14 12:41:57;;;;;;;1.43;0.40;;;;;;;12.93;71.59;97166.53;6216141;28;20215;-56
2023/11/14 12:45:04;;;;;;;1.87;0.50;;;;;;;13.13;68.75;97147.78;6217649;28;20665;-59
2023/11/14 12:48:08;;;;;;;2.47;0.60;;;;;;;13.18;70.17;97165.69;6216956;28;20197;-52
2023/11/14 12:51:11;;;;;;;1.27;0.67;;;;;;;13.24;69.09;97156.59;6215057;28;20213;-54
2023/11/14 12:54:15;;;;;;;2.00;0.50;;;;;;;13.11;69.88;97157.16;6217812;28;20440;-54
2023/11/14 12:57:18;;;;;;;2.83;0.70;;;;;;;13.22;75.35;97180.16;6215462;28;20604;-54
2023/11/14 13:00:20;;;;;;;2.07;0.63;;;;;;;13.23;69.35;97179.06;6199558;28;20197;-54
2023/11/14 13:03:22;;;;;;;1.80;0.67;;;;;;;13.16;70.98;97175.88;6217108;28;20194;-53
2023/11/14 13:06:25;;;;;;;1.03;0.50;;;;;;;13.05;75.18;97176.94;6216845;28;20270;-53
2023/11/14 13:09:30;;;;;;;1.53;0.53;;;;;;;12.84;77.31;97163.59;6216666;28;20571;-54
2023/11/14 13:12:33;;;;;;;0.90;0.40;;;;;;;12.85;77.88;97157.16;6214823;28;20204;-52
2023/11/14 13:15:35;;;;;;;1.63;0.67;;;;;;;12.81;77.83;97155.31;6217167;28;20193;-52
2023/11/14 13:18:38;;;;;;;0.97;0.40;;;;;;;12.80;79.82;97143.00;6214440;28;20853;-54
2023/11/14 13:21:40;;;;;;;2.20;0.60;;;;;;;12.74;81.86;97176.16;6216335;28;20208;-54
2023/11/14 13:24:42;;;;;;;2.33;0.57;;;;;;;12.65;78.03;97174.00;6216916;28;20235;-52
2023/11/14 13:27:44;;;;;;;2.20;0.60;;;;;;;12.68;75.50;97186.06;6216783;28;20196;-52
2023/11/14 13:30:46;;;;;;;1.10;0.70;;;;;;;12.74;73.92;97165.47;6216453;28;20237;-49
2023/11/14 13:33:50;;;;;;;1.47;0.57;;;;;;;12.91;73.10;97149.97;6216171;28;20208;-51
2023/11/14 13:36:53;;;;;;;1.33;0.70;;;;;;;12.79;77.53;97152.91;6215479;28;20276;-52
2023/11/14 13:39:55;;;;;;;1.30;0.60;;;;;;;13.06;70.14;97173.22;6216721;28;20200;-52
2023/11/14 13:43:08;;;;;;;1.27;0.77;;;;;;;13.06;68.84;97168.66;6216836;28;20197;-50
2023/11/14 13:46:13;;;;;;;0.50;0.40;;;;;;;13.02;72.93;97169.47;6194317;28;20208;-47
2023/11/14 13:49:28;;;;;;;1.97;0.50;;;;;;;12.71;69.32;97137.44;6217128;28;20200;-52
2023/11/14 13:52:32;;;;;;;0.57;0.50;;;;;;;12.71;70.11;97166.81;6216583;28;20213;-52
2023/11/14 13:55:34;;;;;;;3.70;0.60;;;;;;;12.67;68.89;97168.41;6219990;28;20287;-54
2023/11/14 13:58:36;;;;;;;1.70;0.60;;;;;;;12.77;68.95;97173.75;6221425;28;20197;-52
2023/11/14 14:01:38;;;;;;;1.60;0.50;;;;;;;12.91;65.15;97176.69;6220793;28;20560;-54
2023/11/14 14:04:40;;;;;;;1.80;0.57;;;;;;;12.98;63.79;97158.50;6219731;28;20283;-54
2023/11/14 14:07:45;;;;;;;0.53;0.50;;;;;;;13.25;62.95;97155.56;6216352;28;20680;-52
2023/11/14 14:10:48;;;;;;;0.97;0.50;;;;;;;13.08;65.39;97163.84;6217326;28;20208;-53
2023/11/14 14:13:50;;;;;;;1.13;0.57;;;;;;;13.05;64.78;97145.66;6219332;28;20201;-54
2023/11/14 14:16:52;;;;;;;0.67;0.50;;;;;;;12.86;67.70;97141.94;6220899;28;20192;-52
2023/11/14 14:19:55;;;;;;;2.80;0.63;;;;;;;12.89;63.29;97125.34;6200586;28;20652;-54